Bullhead City, AZ (86429)

1:52 PM MST on April 28, 2017 (GMT -0700)
Bill at Desert Foothills Estates | | Change Station
Active Advisory: Wind Advisory

Elev 994 ft 35.15 °N, 114.53 °W | Updated 2 seconds ago

Clear
Clear
75.1 °F
Feels Like 74 °F
N
14.7
Wind Variable Wind from NE
Gusts 20.7 mph

Today
High -- | Low -- °F
--% Chance of Precip.
Yesterday
High -- | Low -- °F
Precip. -- in
Pressure 29.76 in
Visibility 10.0 miles
Clouds Clear
Heat Index 74 °F
Dew Point 10 °F
Humidity 8%
Rainfall 0.00 in
Snow Depth Not available.
5:49 AM 7:21 PM
Waxing Crescent, 8% visible
METAR KIFP 282035Z 34018G29KT 10SM CLR 25/M13 A2976 RMK AO2
Pressure 29.76 in
Visibility 10.0 miles
Clouds Clear
Heat Index 74 °F
Dew Point 10 °F
Humidity 8%
Rainfall 0.00 in
Snow Depth Not available.
5:49 AM 7:21 PM
Waxing Crescent, 8% visible
METAR KIFP 282035Z 34018G29KT 10SM CLR 25/M13 A2976 RMK AO2

Get Your Daily Forecast Email!

Thanks for signing up!

Be on the lookout for a verification email in your inbox.

You'll start receiving severe weather alerts in your inbox..

×

10-Day Weather Forecast

Almanac

Astronomy

Apr. 28, 2017 Rise Set
Actual Time
Civil Twilight
Nautical Twilight
Astronomical Twilight
Moon
Length of Visible Light
Length of Day
Tomorrow will be .
, % of the Moon is Illuminated

Today's Extremes

State Highs State Lows

Community

WunderPhotos

WunderBlog® & News

Nearby

Air Quality

  Air Quality AQ Index Pollutant
Not available.

Snow Depth

Station Depth Elevation

Earthquake Activity

City Distance Mag. Time & Date
Minimum magnitude displayed is 2.5.

Coastal Water Temperatures

Place Temperature

Stations

Nearby Weather Stations

Station Location Temp. Windchill Dew Point Humidity Wind Precip. Elev Updated Type
                   

Watches & Warnings

Wind Advisory
Issued: 2:42 AM MDT Apr. 28, 2017 – National Weather Service

... Wind Advisory remains in effect until 5 PM PDT /5 PM MST/
Saturday...

* timing... strong winds will continue into Saturday before
diminishing late Saturday afternoon. The strongest winds
expected this morning until around mid-day, with another peak
possible Saturday morning.

* Winds... north winds of 25 to 35 mph with locally higher gusts
to 50 mph possible. Strongest winds are expected in especially
wind prone locations near Laughlin.

* Impacts... strong winds will create dangerous boating
conditions on area lakes. These winds will create very choppy
waters and generate large waves which could capsize or swamp
vessels. Strong wind gusts may cause localized wind damage to
structures and will destroy any unsecured items left outside.

Precautionary/preparedness actions...

A Wind Advisory means strong winds gusting over 40 mph can make
driving difficult... especially for high profile vehicles. Use
extra caution.



Aa